Time;durP1;ratioP1;P1;durP2;ratioP2;P2;SDS_P1;SDS_P2;PMS_P1;PMS_P2;Temp;Humidity;BMP_temperature;BMP_pressure;BME280_temperature;BME280_humidity;BME280_pressure;Samples;Min_cycle;Max_cycle;Signal;HPM_P1;HPM_P2
2020/12/23 00:01:34;;;;;;;9.70;6.20;;;13.30;99.90;;;;;;5053717;28;20253;-76
2020/12/23 00:04:00;;;;;;;10.00;6.57;;;13.30;99.90;;;;;;5068210;28;20273;-76
2020/12/23 00:06:33;;;;;;;10.67;6.83;;;13.30;99.90;;;;;;5073287;28;20221;-76
2020/12/23 00:09:00;;;;;;;11.43;6.47;;;13.30;99.90;;;;;;5072120;28;20660;-76
2020/12/23 00:11:26;;;;;;;12.97;6.80;;;13.30;99.90;;;;;;5057384;28;20220;-76
2020/12/23 00:13:54;;;;;;;10.20;6.63;;;13.30;99.90;;;;;;5054505;28;20353;-76
2020/12/23 00:16:20;;;;;;;9.03;6.67;;;13.30;99.90;;;;;;5054172;28;20207;-76
2020/12/23 00:18:46;;;;;;;8.93;6.53;;;13.40;99.90;;;;;;5053369;28;20254;-77
2020/12/23 00:21:13;;;;;;;11.90;6.70;;;13.30;99.90;;;;;;5054371;28;20676;-76
2020/12/23 00:23:39;;;;;;;7.53;5.93;;;13.40;99.90;;;;;;5069448;28;20285;-77
2020/12/23 00:26:07;;;;;;;9.00;6.27;;;13.40;99.90;;;;;;5072042;28;20192;-76
2020/12/23 00:28:33;;;;;;;8.83;6.37;;;13.40;99.90;;;;;;5072582;28;20202;-76
2020/12/23 00:31:00;;;;;;;11.83;6.40;;;13.40;99.90;;;;;;5071717;28;20253;-77
2020/12/23 00:33:27;;;;;;;10.23;6.40;;;13.40;99.90;;;;;;5072310;28;20203;-76
2020/12/23 00:35:53;;;;;;;12.83;5.97;;;13.30;99.90;;;;;;5072558;28;20629;-76
2020/12/23 00:38:19;;;;;;;9.20;6.13;;;13.30;99.90;;;;;;5072154;28;20214;-76
2020/12/23 00:40:46;;;;;;;10.70;6.20;;;13.40;99.90;;;;;;5072107;28;20195;-76
2020/12/23 00:43:12;;;;;;;10.43;5.80;;;13.50;99.90;;;;;;5072310;28;20580;-76
2020/12/23 00:45:39;;;;;;;8.23;5.87;;;13.30;99.90;;;;;;5071694;28;20752;-76
2020/12/23 00:48:06;;;;;;;10.23;5.47;;;13.30;99.90;;;;;;5072348;28;20196;-76
2020/12/23 00:50:32;;;;;;;7.73;5.50;;;13.30;99.90;;;;;;5072375;28;20204;-77
2020/12/23 00:52:58;;;;;;;7.67;6.10;;;13.40;99.90;;;;;;5072183;28;20206;-77
2020/12/23 00:55:25;;;;;;;10.77;5.57;;;13.30;99.90;;;;;;5072430;28;20219;-77
2020/12/23 00:57:51;;;;;;;8.50;5.30;;;13.40;99.90;;;;;;5072183;28;20575;-77
2020/12/23 01:00:18;;;;;;;7.97;5.40;;;13.30;99.90;;;;;;5056566;28;20208;-77
2020/12/23 01:02:44;;;;;;;7.37;4.93;;;13.30;99.90;;;;;;5057296;28;20200;-77
2020/12/23 01:05:11;;;;;;;7.63;5.43;;;13.40;99.90;;;;;;5054519;28;20208;-77
2020/12/23 01:07:37;;;;;;;8.87;5.17;;;13.40;99.90;;;;;;5055434;28;20264;-76
2020/12/23 01:10:04;;;;;;;11.20;5.20;;;13.40;99.90;;;;;;5053699;28;20192;-77
2020/12/23 01:12:30;;;;;;;9.20;4.83;;;13.50;99.90;;;;;;5053971;28;20230;-76
2020/12/23 01:14:57;;;;;;;7.97;5.30;;;13.40;99.90;;;;;;5052550;28;20199;-77
2020/12/23 01:17:23;;;;;;;5.73;4.53;;;13.50;99.90;;;;;;5052105;28;20211;-76
2020/12/23 01:19:49;;;;;;;6.33;4.93;;;13.40;99.90;;;;;;5059941;28;20239;-77
2020/12/23 01:22:16;;;;;;;10.27;5.23;;;13.50;99.90;;;;;;5057004;28;20196;-77
2020/12/23 01:24:43;;;;;;;7.03;4.77;;;13.40;99.90;;;;;;5053713;28;20204;-77
2020/12/23 01:27:09;;;;;;;6.77;4.87;;;13.30;99.90;;;;;;5054844;28;20204;-77
2020/12/23 01:29:35;;;;;;;7.23;4.83;;;13.30;99.90;;;;;;5070971;28;20354;-77
2020/12/23 01:32:02;;;;;;;6.97;4.50;;;13.30;99.90;;;;;;5071417;28;20261;-77
2020/12/23 01:34:28;;;;;;;7.17;4.60;;;13.40;99.90;;;;;;5071519;28;20671;-77
2020/12/23 01:36:54;;;;;;;5.77;4.10;;;13.30;99.90;;;;;;5071570;28;20202;-77
2020/12/23 01:39:21;;;;;;;6.07;4.40;;;13.30;99.90;;;;;;5070749;28;20290;-77
2020/12/23 01:41:48;;;;;;;4.70;3.80;;;13.30;99.90;;;;;;5064276;28;20271;-77
2020/12/23 01:44:14;;;;;;;10.57;4.10;;;13.20;99.90;;;;;;5052607;28;20212;-77
2020/12/23 01:46:42;;;;;;;6.53;3.90;;;13.20;99.90;;;;;;5051535;28;20204;-77
2020/12/23 01:49:09;;;;;;;6.33;3.87;;;13.20;99.90;;;;;;5054780;28;20204;-77
2020/12/23 01:51:36;;;;;;;5.97;3.57;;;13.30;99.90;;;;;;5054651;28;20227;-77
2020/12/23 01:54:03;;;;;;;4.70;3.90;;;13.30;99.90;;;;;;5053386;28;20204;-77
2020/12/23 01:56:31;;;;;;;4.00;3.40;;;13.30;99.90;;;;;;5053261;28;20212;-76
2020/12/23 01:58:57;;;;;;;6.33;3.80;;;13.50;99.90;;;;;;5051544;28;20638;-77
2020/12/23 02:01:27;;;;;;;4.93;3.27;;;13.60;99.90;;;;;;5053707;28;20199;-77
2020/12/23 02:03:54;;;;;;;3.80;3.30;;;13.50;99.90;;;;;;5053565;28;20201;-77
2020/12/23 02:06:20;;;;;;;5.20;3.47;;;13.50;99.90;;;;;;5054872;28;20285;-77
2020/12/23 02:08:49;;;;;;;4.53;3.53;;;13.50;99.90;;;;;;5052771;28;20283;-77
2020/12/23 02:11:16;;;;;;;4.07;3.53;;;13.50;99.90;;;;;;5066471;28;20224;-77
2020/12/23 02:13:45;;;;;;;6.00;3.70;;;13.40;99.90;;;;;;5072196;28;20280;-78
2020/12/23 02:16:12;;;;;;;5.20;3.97;;;13.50;99.90;;;;;;5071823;28;20210;-77
2020/12/23 02:18:39;;;;;;;5.20;4.30;;;13.40;99.90;;;;;;5071429;28;20302;-77
2020/12/23 02:21:06;;;;;;;5.10;4.33;;;13.50;99.90;;;;;;5072088;28;20192;-77
2020/12/23 02:23:33;;;;;;;5.37;4.30;;;13.50;99.90;;;;;;5071869;28;20229;-77
2020/12/23 02:26:00;;;;;;;4.73;4.07;;;13.50;99.90;;;;;;5071567;28;20199;-77
2020/12/23 02:28:26;;;;;;;5.33;4.13;;;13.50;99.90;;;;;;5071483;28;20268;-77
2020/12/23 02:31:00;;;;;;;4.33;3.93;;;13.50;99.90;;;;;;5071660;28;20297;-76
2020/12/23 02:33:27;;;;;;;5.10;3.90;;;13.50;99.90;;;;;;5057503;28;20295;-76
2020/12/23 02:35:53;;;;;;;5.87;4.30;;;13.50;99.90;;;;;;5051780;28;20200;-76
2020/12/23 02:38:19;;;;;;;5.83;4.00;;;13.50;99.90;;;;;;5051714;28;20780;-76
2020/12/23 02:40:47;;;;;;;5.10;4.13;;;13.50;99.90;;;;;;5051124;28;20214;-76
2020/12/23 02:43:13;;;;;;;5.30;3.97;;;13.50;99.90;;;;;;5051765;28;20586;-76
2020/12/23 02:45:40;;;;;;;5.70;3.93;;;13.40;99.90;;;;;;5051382;28;20291;-76
2020/12/23 02:48:06;;;;;;;5.80;4.03;;;13.40;99.90;;;;;;5051792;28;20317;-76
2020/12/23 02:50:32;;;;;;;4.63;3.80;;;13.40;99.90;;;;;;5051782;28;20291;-76
2020/12/23 02:52:59;;;;;;;7.23;3.50;;;13.40;99.90;;;;;;5052099;28;20226;-76
2020/12/23 02:55:25;;;;;;;6.30;3.50;;;13.40;99.90;;;;;;5051909;28;20579;-76
2020/12/23 02:57:52;;;;;;;4.67;3.47;;;13.40;99.90;;;;;;5051912;28;20200;-76
2020/12/23 03:00:19;;;;;;;3.30;3.00;;;13.40;99.90;;;;;;5051740;28;20202;-76
2020/12/23 03:02:45;;;;;;;4.33;3.17;;;13.40;99.90;;;;;;5051546;28;20200;-76
2020/12/23 03:05:11;;;;;;;2.87;2.40;;;13.40;99.90;;;;;;5052172;28;20204;-75
2020/12/23 03:07:37;;;;;;;2.87;2.30;;;13.40;99.90;;;;;;5051971;28;20223;-76
2020/12/23 03:10:04;;;;;;;2.17;1.67;;;13.40;99.90;;;;;;5051605;28;20589;-76
2020/12/23 03:12:30;;;;;;;2.60;1.20;;;13.40;99.90;;;;;;5051141;28;20288;-76
2020/12/23 03:14:57;;;;;;;1.83;1.57;;;13.30;99.90;;;;;;5050790;28;20602;-76
2020/12/23 03:17:24;;;;;;;1.40;1.30;;;13.20;99.90;;;;;;5051561;28;20291;-76
2020/12/23 03:19:50;;;;;;;1.03;0.93;;;13.20;99.90;;;;;;5050808;28;20203;-76
2020/12/23 03:22:16;;;;;;;1.73;0.90;;;13.20;99.90;;;;;;5051186;28;20636;-76
2020/12/23 03:24:43;;;;;;;2.90;0.90;;;13.20;99.90;;;;;;5051178;28;20306;-76
2020/12/23 03:27:09;;;;;;;2.20;0.97;;;13.20;99.90;;;;;;5051223;28;20233;-75
2020/12/23 03:29:35;;;;;;;1.00;0.70;;;13.30;99.90;;;;;;5060988;28;20210;-76
2020/12/23 03:32:02;;;;;;;1.00;0.60;;;13.30;99.90;;;;;;5068575;28;20231;-76
2020/12/23 03:34:29;;;;;;;1.03;0.40;;;13.20;99.90;;;;;;5051319;28;20196;-76
2020/12/23 03:36:55;;;;;;;0.60;0.50;;;13.30;99.90;;;;;;5051120;28;20204;-76
2020/12/23 03:39:21;;;;;;;1.67;0.60;;;13.30;99.90;;;;;;5051448;28;20211;-76
2020/12/23 03:41:48;;;;;;;1.00;0.90;;;13.30;99.90;;;;;;5051090;28;20311;-76
2020/12/23 03:44:14;;;;;;;5.40;3.77;;;13.20;99.90;;;;;;5050650;28;20207;-76
2020/12/23 03:46:41;;;;;;;8.17;4.47;;;13.20;99.90;;;;;;5050921;28;20670;-76
2020/12/23 03:49:08;;;;;;;8.53;5.13;;;13.20;99.90;;;;;;5050944;28;20342;-76
2020/12/23 03:51:34;;;;;;;11.17;5.30;;;13.20;99.90;;;;;;5052062;28;20753;-76
2020/12/23 03:54:00;;;;;;;12.47;5.30;;;13.10;99.90;;;;;;5054439;28;20283;-76
2020/12/23 03:56:27;;;;;;;13.40;5.37;;;13.10;99.90;;;;;;5054884;28;20211;-76
2020/12/23 03:58:53;;;;;;;11.33;4.63;;;13.00;99.90;;;;;;5054666;28;20298;-77
2020/12/23 04:01:19;;;;;;;10.50;4.40;;;13.00;99.90;;;;;;5054376;28;20287;-77
2020/12/23 04:03:46;;;;;;;7.67;3.47;;;12.90;99.90;;;;;;5054376;28;20677;-77
2020/12/23 04:06:13;;;;;;;6.57;3.00;;;12.90;99.90;;;;;;5054221;28;20202;-77
2020/12/23 04:08:41;;;;;;;9.33;3.97;;;12.90;99.90;;;;;;5054330;28;20200;-77
2020/12/23 04:11:07;;;;;;;5.70;2.97;;;12.90;99.90;;;;;;5053749;28;20635;-77
2020/12/23 04:13:33;;;;;;;4.80;2.10;;;12.90;99.90;;;;;;5054561;28;20204;-77
2020/12/23 04:16:00;;;;;;;4.67;2.50;;;12.90;99.90;;;;;;5054225;28;20286;-76
2020/12/23 04:18:26;;;;;;;4.63;2.13;;;12.90;99.90;;;;;;5054145;28;20657;-77
2020/12/23 04:20:52;;;;;;;4.90;2.30;;;12.90;99.90;;;;;;5054508;28;20283;-77
2020/12/23 04:23:19;;;;;;;5.70;2.20;;;12.90;99.90;;;;;;5053937;28;20212;-77
2020/12/23 04:25:46;;;;;;;3.93;1.67;;;12.90;99.90;;;;;;5054149;28;20202;-77
2020/12/23 04:28:12;;;;;;;4.17;1.73;;;12.90;99.90;;;;;;5053618;28;20761;-77
2020/12/23 04:30:38;;;;;;;3.80;1.50;;;12.90;99.90;;;;;;5072609;28;20210;-77
2020/12/23 04:33:05;;;;;;;3.60;1.90;;;12.90;99.90;;;;;;5062723;28;20322;-77
2020/12/23 04:35:31;;;;;;;3.17;1.53;;;12.80;99.90;;;;;;5053851;28;20282;-77
2020/12/23 04:37:57;;;;;;;3.50;1.40;;;12.90;99.90;;;;;;5053898;28;20318;-77
2020/12/23 04:40:25;;;;;;;3.43;1.27;;;12.90;99.90;;;;;;5053738;28;20215;-77
2020/12/23 04:42:52;;;;;;;2.00;1.00;;;12.80;99.90;;;;;;5053871;28;20203;-77
2020/12/23 04:45:18;;;;;;;3.53;1.00;;;12.80;99.90;;;;;;5053803;28;20204;-77
2020/12/23 04:47:47;;;;;;;1.57;0.80;;;12.80;99.90;;;;;;5053209;28;20287;-77
2020/12/23 04:50:14;;;;;;;2.10;0.90;;;12.80;99.90;;;;;;5053592;28;20204;-77
2020/12/23 04:52:41;;;;;;;1.93;0.90;;;12.80;99.90;;;;;;5053088;28;20238;-77
2020/12/23 04:55:08;;;;;;;1.57;0.70;;;12.80;99.90;;;;;;5053149;28;20200;-77
2020/12/23 04:57:36;;;;;;;2.80;1.00;;;12.60;99.90;;;;;;5053301;28;20295;-77
2020/12/23 05:00:05;;;;;;;1.60;0.90;;;12.60;99.90;;;;;;5053786;28;20242;-77
2020/12/23 05:02:31;;;;;;;1.37;0.77;;;12.60;99.90;;;;;;5053007;28;20208;-77
2020/12/23 05:04:57;;;;;;;2.33;0.50;;;12.60;99.90;;;;;;5053150;28;20623;-77
2020/12/23 05:07:24;;;;;;;1.67;0.70;;;12.70;99.90;;;;;;5053114;28;20208;-77
2020/12/23 05:09:51;;;;;;;1.93;0.70;;;12.70;99.90;;;;;;5053273;28;20291;-77
2020/12/23 05:12:19;;;;;;;2.10;0.80;;;12.70;99.90;;;;;;5053041;28;20234;-77
2020/12/23 05:14:47;;;;;;;0.90;0.70;;;12.70;99.90;;;;;;5052794;28;20222;-77
2020/12/23 05:17:15;;;;;;;1.30;0.70;;;12.70;99.90;;;;;;5052962;28;20203;-76
2020/12/23 05:19:42;;;;;;;1.55;0.80;;;12.70;99.90;;;;;;5052539;28;20440;-77
2020/12/23 05:22:09;;;;;;;2.80;0.70;;;12.60;99.90;;;;;;5052613;28;20218;-76
2020/12/23 05:24:37;;;;;;;1.37;0.90;;;12.70;99.90;;;;;;5052778;28;20204;-76
2020/12/23 05:27:05;;;;;;;2.67;1.00;;;12.70;99.90;;;;;;5052584;28;20204;-77
2020/12/23 05:29:31;;;;;;;2.10;0.73;;;12.70;99.90;;;;;;5062098;28;20203;-77
2020/12/23 05:32:01;;;;;;;1.43;0.83;;;12.70;99.90;;;;;;5056541;28;20224;-77
2020/12/23 05:34:27;;;;;;;1.30;0.77;;;12.70;99.90;;;;;;5052537;28;20204;-77
2020/12/23 05:36:53;;;;;;;1.87;0.97;;;12.70;99.90;;;;;;5052444;28;20287;-77
2020/12/23 05:39:20;;;;;;;1.73;0.60;;;12.80;99.90;;;;;;5052874;28;20231;-77
2020/12/23 05:41:47;;;;;;;1.83;0.90;;;12.80;99.90;;;;;;5052456;28;20740;-77
2020/12/23 05:44:18;;;;;;;2.10;0.60;;;12.80;99.90;;;;;;5052349;28;20202;-76
2020/12/23 05:46:48;;;;;;;1.40;0.77;;;12.70;99.90;;;;;;5052409;28;20219;-77
2020/12/23 05:49:16;;;;;;;0.90;0.80;;;12.70;99.90;;;;;;5052320;28;20218;-77
2020/12/23 05:51:44;;;;;;;2.00;0.60;;;12.70;99.90;;;;;;5052718;28;20215;-77
2020/12/23 05:54:11;;;;;;;3.40;0.63;;;12.80;99.90;;;;;;5051846;28;20287;-77
2020/12/23 05:56:38;;;;;;;1.73;0.90;;;12.70;99.90;;;;;;5052578;28;20214;-77
2020/12/23 05:59:05;;;;;;;0.93;0.60;;;12.60;99.90;;;;;;5051816;28;20554;-77
2020/12/23 06:01:35;;;;;;;0.73;0.60;;;12.70;99.90;;;;;;5052458;28;20203;-77
2020/12/23 06:04:06;;;;;;;1.33;0.80;;;12.70;99.90;;;;;;5052112;28;20203;-77
2020/12/23 06:06:34;;;;;;;2.23;0.70;;;12.60;99.90;;;;;;5052170;28;20200;-77
2020/12/23 06:09:03;;;;;;;1.43;0.70;;;12.70;99.90;;;;;;5055039;28;20244;-77
2020/12/23 06:11:32;;;;;;;1.67;0.83;;;12.70;99.90;;;;;;5071165;28;20225;-77
2020/12/23 06:14:13;;;;;;;0.80;0.70;;;12.80;99.90;;;;;;5069537;28;20194;-78
2020/12/23 06:16:42;;;;;;;1.83;0.80;;;12.70;99.90;;;;;;5066064;28;20199;-77
2020/12/23 06:19:10;;;;;;;0.67;0.53;;;12.70;99.90;;;;;;5063019;28;20285;-78
2020/12/23 06:21:39;;;;;;;0.83;0.67;;;12.80;99.90;;;;;;5066110;28;20233;-77
2020/12/23 06:24:07;;;;;;;1.93;0.70;;;12.80;99.90;;;;;;5057014;28;20199;-77
2020/12/23 06:26:36;;;;;;;0.50;0.50;;;12.80;99.90;;;;;;5069043;28;20210;-77
2020/12/23 06:29:05;;;;;;;0.93;0.60;;;12.80;99.90;;;;;;5071595;28;20195;-77
2020/12/23 06:31:39;;;;;;;1.80;0.70;;;12.80;99.90;;;;;;5062353;28;20225;-77
2020/12/23 06:34:06;;;;;;;1.37;0.70;;;12.80;99.90;;;;;;5059590;28;20203;-77
2020/12/23 06:36:34;;;;;;;1.73;0.77;;;12.70;99.90;;;;;;5059839;28;20571;-77
2020/12/23 06:39:27;;;;;;;1.97;0.87;;;12.80;99.90;;;;;;5057950;28;20504;-77
2020/12/23 06:41:55;;;;;;;1.80;0.80;;;12.80;99.90;;;;;;5052075;28;20219;-77
2020/12/23 06:44:22;;;;;;;1.93;0.87;;;12.90;99.90;;;;;;5071001;28;20221;-77
2020/12/23 06:47:08;;;;;;;2.23;0.90;;;13.00;99.90;;;;;;5071631;28;20199;-77
2020/12/23 06:49:39;;;;;;;1.67;0.90;;;13.00;99.90;;;;;;5060467;28;20286;-78
2020/12/23 06:52:28;;;;;;;2.57;1.57;;;13.00;99.90;;;;;;5064670;28;20722;-77
2020/12/23 06:54:58;;;;;;;1.97;1.40;;;12.90;99.90;;;;;;5063636;28;20204;-77
2020/12/23 06:57:46;;;;;;;1.93;1.40;;;12.90;99.90;;;;;;5055147;28;20211;-77
2020/12/23 07:00:13;;;;;;;3.57;1.77;;;12.90;99.90;;;;;;5071126;28;20223;-77
2020/12/23 07:02:43;;;;;;;3.83;2.20;;;12.90;99.90;;;;;;5064574;28;20207;-77
2020/12/23 07:05:10;;;;;;;2.93;2.00;;;12.90;99.90;;;;;;5057408;28;20239;-77
2020/12/23 07:07:39;;;;;;;3.33;2.00;;;13.00;99.90;;;;;;5062234;28;20202;-77
2020/12/23 07:10:09;;;;;;;2.23;1.77;;;13.00;99.90;;;;;;5057313;28;20261;-77
2020/12/23 07:12:41;;;;;;;2.00;1.80;;;13.00;99.90;;;;;;5066329;28;20587;-77
2020/12/23 07:15:09;;;;;;;1.60;1.50;;;13.00;99.90;;;;;;5071469;28;20235;-77
2020/12/23 07:17:36;;;;;;;3.40;2.20;;;12.90;99.90;;;;;;5071100;28;20293;-77
2020/12/23 07:20:06;;;;;;;2.00;1.77;;;13.00;99.90;;;;;;5070740;28;20213;-77
2020/12/23 07:22:34;;;;;;;1.80;1.70;;;13.00;99.90;;;;;;5070765;28;20657;-77
2020/12/23 07:25:01;;;;;;;2.20;1.87;;;13.00;99.90;;;;;;5070547;28;20194;-77
2020/12/23 07:27:28;;;;;;;2.63;1.80;;;13.00;99.90;;;;;;5066207;28;20209;-77
2020/12/23 07:29:56;;;;;;;3.90;1.50;;;13.10;99.90;;;;;;5068983;28;20208;-77
2020/12/23 07:32:26;;;;;;;2.30;1.67;;;13.10;99.90;;;;;;5073668;28;20300;-77
2020/12/23 07:34:53;;;;;;;2.73;1.87;;;13.10;99.90;;;;;;5074707;28;20217;-77
2020/12/23 07:37:19;;;;;;;2.30;1.87;;;13.20;99.90;;;;;;5074452;28;20576;-77
2020/12/23 07:39:50;;;;;;;3.10;1.60;;;13.10;99.90;;;;;;5056424;28;20537;-77
2020/12/23 07:42:19;;;;;;;2.97;2.10;;;13.20;99.90;;;;;;5061804;28;20218;-77
2020/12/23 07:44:52;;;;;;;2.47;1.97;;;13.20;99.90;;;;;;5072875;28;20204;-77
2020/12/23 07:47:23;;;;;;;4.77;1.90;;;13.30;99.90;;;;;;5068819;28;20645;-77
2020/12/23 07:50:03;;;;;;;4.20;2.13;;;13.30;99.90;;;;;;5057744;28;20204;-77
2020/12/23 07:52:29;;;;;;;2.20;1.97;;;13.30;99.90;;;;;;5063135;28;20325;-78
2020/12/23 07:55:11;;;;;;;2.40;2.20;;;13.40;99.90;;;;;;5059818;28;20192;-77
2020/12/23 07:57:37;;;;;;;4.50;2.13;;;13.40;99.90;;;;;;5070661;28;20206;-77
2020/12/23 08:00:05;;;;;;;3.97;2.07;;;13.40;99.90;;;;;;5071168;28;20200;-77
2020/12/23 08:02:32;;;;;;;5.70;2.33;;;13.30;99.90;;;;;;5073617;28;20199;-77
2020/12/23 08:05:00;;;;;;;4.27;2.30;;;13.20;99.90;;;;;;5071990;28;20199;-77
2020/12/23 08:07:27;;;;;;;2.57;1.93;;;13.20;99.90;;;;;;5064365;28;20196;-77
2020/12/23 08:09:54;;;;;;;2.60;2.20;;;13.10;99.90;;;;;;5060669;28;20272;-77
2020/12/23 08:12:21;;;;;;;2.23;1.90;;;13.10;99.90;;;;;;5072691;28;20215;-78
2020/12/23 08:14:48;;;;;;;8.47;2.10;;;13.10;99.90;;;;;;5073567;28;20216;-77
2020/12/23 08:17:22;;;;;;;2.97;1.87;;;13.10;99.90;;;;;;5073399;28;20199;-78
2020/12/23 08:20:03;;;;;;;1.90;1.70;;;13.20;99.90;;;;;;5068258;28;20219;-77
2020/12/23 08:22:29;;;;;;;1.80;1.60;;;13.20;99.90;;;;;;5058014;28;20310;-77
2020/12/23 08:25:08;;;;;;;3.00;1.90;;;13.10;99.90;;;;;;5060017;28;20456;-78
2020/12/23 08:27:36;;;;;;;1.83;1.57;;;13.10;99.90;;;;;;5067072;28;20223;-77
2020/12/23 08:30:04;;;;;;;1.97;1.50;;;13.20;99.90;;;;;;5069771;28;20203;-78
2020/12/23 08:32:43;;;;;;;1.57;1.20;;;13.20;99.90;;;;;;5065015;28;20253;-77
2020/12/23 08:35:11;;;;;;;1.40;1.30;;;13.20;99.90;;;;;;5070051;28;20203;-77
2020/12/23 08:37:38;;;;;;;1.67;1.20;;;13.20;99.90;;;;;;5072249;28;20195;-77
2020/12/23 08:40:06;;;;;;;2.07;1.10;;;13.20;99.90;;;;;;5069675;28;20692;-77
2020/12/23 08:42:33;;;;;;;1.30;1.10;;;13.10;99.90;;;;;;5063492;28;20530;-77
2020/12/23 08:44:59;;;;;;;1.20;1.10;;;13.10;99.90;;;;;;5066031;28;20211;-78
2020/12/23 08:47:28;;;;;;;0.87;0.80;;;13.20;99.90;;;;;;5072584;28;20207;-78
2020/12/23 08:49:56;;;;;;;1.63;1.20;;;13.20;99.90;;;;;;5073228;28;20199;-78
2020/12/23 08:52:24;;;;;;;1.50;1.13;;;13.20;99.90;;;;;;5063913;28;20700;-78
2020/12/23 08:54:52;;;;;;;2.17;1.00;;;13.20;99.90;;;;;;5069983;28;20207;-78
2020/12/23 08:57:26;;;;;;;1.00;0.90;;;13.20;99.90;;;;;;5069204;28;20264;-79
2020/12/23 08:59:54;;;;;;;0.93;0.70;;;13.20;99.90;;;;;;5066252;28;20724;-77
2020/12/23 09:02:22;;;;;;;0.90;0.70;;;13.20;99.90;;;;;;5066644;28;20629;-78
2020/12/23 09:04:48;;;;;;;1.93;0.57;;;13.20;99.90;;;;;;5063553;28;20200;-77
2020/12/23 09:07:22;;;;;;;2.17;0.70;;;13.20;99.90;;;;;;5064872;28;20314;-77
2020/12/23 09:09:49;;;;;;;1.30;0.73;;;13.10;99.90;;;;;;5071097;28;20199;-78
2020/12/23 09:12:22;;;;;;;2.13;0.40;;;13.20;99.90;;;;;;5068086;28;20292;-78
2020/12/23 09:14:48;;;;;;;1.07;0.63;;;13.20;99.90;;;;;;5056537;28;20199;-77
2020/12/23 09:17:23;;;;;;;0.90;0.60;;;13.20;99.90;;;;;;5065609;28;20195;-77
2020/12/23 09:19:52;;;;;;;1.33;0.70;;;13.20;99.90;;;;;;5068338;28;20214;-77
2020/12/23 09:22:28;;;;;;;0.70;0.60;;;13.30;99.90;;;;;;5071640;28;20653;-77
2020/12/23 09:25:18;;;;;;;1.00;0.87;;;13.20;99.90;;;;;;5072115;28;20567;-79
2020/12/23 09:27:45;;;;;;;3.73;0.97;;;13.30;99.90;;;;;;5059914;28;20713;-80
2020/12/23 09:30:12;;;;;;;1.60;0.70;;;13.30;99.90;;;;;;5062564;28;20289;-78
2020/12/23 09:32:53;;;;;;;1.10;0.67;;;13.30;99.90;;;;;;5071525;28;20216;-78
2020/12/23 09:35:29;;;;;;;1.47;1.00;;;13.20;99.90;;;;;;5064147;28;20208;-78
2020/12/23 09:38:24;;;;;;;1.17;1.07;;;13.10;99.90;;;;;;5068368;28;20198;-78
2020/12/23 09:40:52;;;;;;;2.20;1.00;;;13.10;99.90;;;;;;5054674;28;20203;-77
2020/12/23 09:43:21;;;;;;;1.07;0.90;;;13.10;99.90;;;;;;5066615;28;20203;-78
2020/12/23 09:45:49;;;;;;;1.33;0.90;;;13.10;99.90;;;;;;5065660;28;20210;-79
2020/12/23 09:48:17;;;;;;;1.07;0.80;;;13.20;99.90;;;;;;5067903;28;20720;-78
2020/12/23 09:50:44;;;;;;;1.00;0.73;;;13.20;99.90;;;;;;5063244;28;20207;-77
2020/12/23 09:53:12;;;;;;;1.20;1.10;;;13.20;99.90;;;;;;5061517;28;20222;-77
2020/12/23 09:55:41;;;;;;;1.27;0.97;;;13.20;99.90;;;;;;5063796;28;20199;-78
2020/12/23 09:58:07;;;;;;;1.37;1.00;;;13.20;99.90;;;;;;5070122;28;20682;-78
2020/12/23 10:00:34;;;;;;;1.47;0.77;;;13.10;99.90;;;;;;5067924;28;20696;-78
2020/12/23 10:03:00;;;;;;;1.37;0.80;;;13.10;99.90;;;;;;5067325;28;20385;-78
2020/12/23 10:05:27;;;;;;;1.50;1.10;;;13.20;99.90;;;;;;5069456;28;20202;-78
2020/12/23 10:07:54;;;;;;;2.20;0.97;;;13.20;99.90;;;;;;5061118;28;20249;-78
2020/12/23 10:10:20;;;;;;;0.87;0.80;;;13.20;99.90;;;;;;5066584;28;20227;-78
2020/12/23 10:12:47;;;;;;;1.77;0.70;;;13.20;99.90;;;;;;5068159;28;20242;-78
2020/12/23 10:15:15;;;;;;;1.33;0.90;;;13.10;99.90;;;;;;5062223;28;20242;-78
2020/12/23 10:17:41;;;;;;;0.90;0.57;;;13.10;99.90;;;;;;5070219;28;20214;-79
2020/12/23 10:20:09;;;;;;;1.87;0.70;;;13.10;99.90;;;;;;5068867;28;20575;-78
2020/12/23 10:22:35;;;;;;;0.60;0.40;;;13.20;99.90;;;;;;5059906;28;20290;-78
2020/12/23 10:25:03;;;;;;;0.80;0.70;;;13.20;99.90;;;;;;5064201;28;20191;-77
2020/12/23 10:27:29;;;;;;;0.80;0.60;;;13.30;99.90;;;;;;5052671;28;20276;-78
2020/12/23 10:29:56;;;;;;;0.60;0.47;;;13.30;99.90;;;;;;5066803;28;20200;-78
2020/12/23 10:32:23;;;;;;;1.20;0.40;;;13.30;99.90;;;;;;5054858;28;20327;-78
2020/12/23 10:34:49;;;;;;;1.00;0.70;;;13.30;99.90;;;;;;5063234;28;20337;-78
2020/12/23 10:37:19;;;;;;;1.53;0.70;;;13.30;99.90;;;;;;5062160;28;20306;-78
2020/12/23 10:39:45;;;;;;;1.23;0.90;;;13.50;99.90;;;;;;5071178;28;20274;-78
2020/12/23 10:42:11;;;;;;;2.10;0.70;;;13.50;99.90;;;;;;5052785;28;20200;-78
2020/12/23 10:44:38;;;;;;;2.07;1.27;;;13.50;99.90;;;;;;5065516;28;20196;-78
2020/12/23 10:47:05;;;;;;;1.97;0.90;;;13.50;99.90;;;;;;5060375;28;20239;-78
2020/12/23 10:49:31;;;;;;;2.30;1.00;;;13.50;99.90;;;;;;5058061;28;20200;-78
2020/12/23 10:51:59;;;;;;;1.83;1.00;;;13.60;99.90;;;;;;5062086;28;20208;-78
2020/12/23 10:54:27;;;;;;;2.40;1.07;;;13.60;99.90;;;;;;5059418;28;20200;-78
2020/12/23 10:56:53;;;;;;;3.70;1.27;;;13.60;99.90;;;;;;5058634;28;20209;-77
2020/12/23 10:59:20;;;;;;;3.00;1.40;;;13.60;99.90;;;;;;5064384;28;20195;-78
2020/12/23 11:01:51;;;;;;;2.33;1.20;;;13.70;99.90;;;;;;5069599;28;20259;-77
2020/12/23 11:04:19;;;;;;;1.77;1.17;;;13.70;99.90;;;;;;5071512;28;20241;-77
2020/12/23 11:06:48;;;;;;;2.63;1.20;;;13.60;99.90;;;;;;5073940;28;20248;-77
2020/12/23 11:09:14;;;;;;;2.63;1.10;;;13.60;99.90;;;;;;5072139;28;20302;-77
2020/12/23 11:11:40;;;;;;;2.97;1.30;;;13.60;99.90;;;;;;5070466;28;20192;-78
2020/12/23 11:14:06;;;;;;;2.50;1.37;;;13.60;99.90;;;;;;5066079;28;20575;-77
2020/12/23 11:16:33;;;;;;;3.97;1.37;;;13.50;99.90;;;;;;5069688;28;20198;-77
2020/12/23 11:18:59;;;;;;;1.27;1.10;;;13.50;99.90;;;;;;5069188;28;20307;-77
2020/12/23 11:21:26;;;;;;;2.17;1.07;;;13.50;99.90;;;;;;5067243;28;20196;-77
2020/12/23 11:23:53;;;;;;;2.50;1.20;;;13.40;99.90;;;;;;5072608;28;20282;-77
2020/12/23 11:26:21;;;;;;;1.50;1.00;;;13.50;99.90;;;;;;5066803;28;20231;-77
2020/12/23 11:28:48;;;;;;;1.93;1.10;;;13.40;99.90;;;;;;5071441;28;20621;-77
2020/12/23 11:31:15;;;;;;;1.13;0.90;;;13.40;99.90;;;;;;5068147;28;20603;-77
2020/12/23 11:33:42;;;;;;;1.87;1.17;;;13.30;99.90;;;;;;5071036;28;20237;-77
2020/12/23 11:36:08;;;;;;;2.23;1.00;;;13.20;99.90;;;;;;5071091;28;20325;-77
2020/12/23 11:38:35;;;;;;;1.40;1.00;;;13.20;99.90;;;;;;5069687;28;20199;-77
2020/12/23 11:41:05;;;;;;;1.77;1.10;;;13.10;99.90;;;;;;5068955;28;20187;-77
2020/12/23 11:43:31;;;;;;;1.20;0.97;;;13.20;99.90;;;;;;5070204;28;20278;-77
2020/12/23 11:45:58;;;;;;;1.77;0.90;;;13.20;99.90;;;;;;5070623;28;20195;-77
2020/12/23 11:48:24;;;;;;;2.20;1.07;;;13.30;99.90;;;;;;5065285;28;20295;-77
2020/12/23 11:50:50;;;;;;;2.43;1.27;;;13.20;99.90;;;;;;5068483;28;20203;-77
2020/12/23 11:53:17;;;;;;;2.40;1.63;;;13.20;99.90;;;;;;5063074;28;20710;-77
2020/12/23 11:55:44;;;;;;;2.00;1.30;;;13.20;99.90;;;;;;5063293;28;20198;-77
2020/12/23 11:58:10;;;;;;;1.13;0.90;;;13.20;99.90;;;;;;5064718;28;20314;-77
2020/12/23 12:00:37;;;;;;;1.33;0.80;;;13.20;99.90;;;;;;5070479;28;20199;-77
2020/12/23 12:03:03;;;;;;;1.50;0.80;;;13.10;99.90;;;;;;5070441;28;20555;-77
2020/12/23 12:05:29;;;;;;;1.00;0.70;;;13.10;99.90;;;;;;5069502;28;20590;-77
2020/12/23 12:07:56;;;;;;;1.17;0.70;;;13.00;99.90;;;;;;5064134;28;20192;-77
2020/12/23 12:10:22;;;;;;;1.27;0.53;;;13.10;99.90;;;;;;5061227;28;20204;-77
2020/12/23 12:12:49;;;;;;;1.30;0.80;;;13.10;99.90;;;;;;5056027;28;20219;-77
2020/12/23 12:15:15;;;;;;;2.27;0.90;;;13.20;99.90;;;;;;5056218;28;20347;-77
2020/12/23 12:17:42;;;;;;;3.90;1.10;;;13.20;99.90;;;;;;5059038;28;20206;-77
2020/12/23 12:20:08;;;;;;;1.53;0.80;;;13.20;99.90;;;;;;5069454;28;20215;-77
2020/12/23 12:22:35;;;;;;;3.03;1.00;;;13.20;99.90;;;;;;5058949;28;20204;-77
2020/12/23 12:25:01;;;;;;;2.13;1.07;;;13.40;99.90;;;;;;5058996;28;20199;-77
2020/12/23 12:27:28;;;;;;;4.80;1.10;;;13.40;99.90;;;;;;5059624;28;20294;-77
2020/12/23 12:29:55;;;;;;;1.70;1.03;;;13.30;99.90;;;;;;5057185;28;20207;-77
2020/12/23 12:32:21;;;;;;;1.80;1.10;;;13.40;99.90;;;;;;5051908;28;20680;-77
2020/12/23 12:34:48;;;;;;;1.70;1.27;;;13.40;99.90;;;;;;5055497;28;20667;-77
2020/12/23 12:37:14;;;;;;;2.53;1.23;;;13.40;99.90;;;;;;5042611;28;21362;-77
2020/12/23 12:39:40;;;;;;;1.27;1.00;;;13.50;99.90;;;;;;5058795;28;20272;-77
2020/12/23 12:42:07;;;;;;;2.80;1.20;;;13.50;99.90;;;;;;5059054;28;20283;-77
2020/12/23 12:44:33;;;;;;;2.70;1.10;;;13.60;99.90;;;;;;5052349;28;20750;-77
2020/12/23 12:47:00;;;;;;;1.77;1.10;;;13.60;99.90;;;;;;5060022;28;20672;-77
2020/12/23 12:49:27;;;;;;;3.27;1.03;;;13.70;99.90;;;;;;5063454;28;20346;-77